Time;durP1;ratioP1;P1;durP2;ratioP2;P2;SDS_P1;SDS_P2;PMS_P1;PMS_P2;Temp;Humidity;BMP_temperature;BMP_pressure;BME280_temperature;BME280_humidity;BME280_pressure;Samples;Min_cycle;Max_cycle;Signal;HPM_P1;HPM_P2
2022/08/04 00:01:32;;;;;;;1.90;1.80;;;22.50;68.30;;;;;;5065150;28;20656;-82
2022/08/04 00:04:08;;;;;;;2.93;1.90;;;22.60;71.10;;;;;;5067823;28;20636;-83
2022/08/04 00:06:48;;;;;;;2.60;2.40;;;22.60;68.30;;;;;;5067759;28;20621;-83
2022/08/04 00:09:26;;;;;;;1.60;1.50;;;22.50;66.90;;;;;;5066805;28;20620;-82
2022/08/04 00:11:57;;;;;;;1.93;1.83;;;22.50;70.50;;;;;;5088430;28;20701;-82
2022/08/04 00:14:26;;;;;;;2.03;1.63;;;22.40;70.60;;;;;;5071845;28;20683;-82
2022/08/04 00:16:54;;;;;;;1.70;1.60;;;22.30;72.40;;;;;;5071220;28;20717;-82
2022/08/04 00:19:29;;;;;;;2.30;2.10;;;22.20;72.20;;;;;;5088020;28;21420;-82
2022/08/04 00:22:02;;;;;;;2.03;1.93;;;22.10;73.20;;;;;;5081158;28;20628;-82
2022/08/04 00:24:31;;;;;;;2.83;2.53;;;22.00;73.50;;;;;;5067603;28;20660;-82
2022/08/04 00:27:00;;;;;;;2.50;2.30;;;22.00;72.80;;;;;;5082044;28;20635;-82
2022/08/04 00:29:27;;;;;;;3.60;3.30;;;22.00;75.00;;;;;;5082721;28;20618;-82
2022/08/04 00:31:56;;;;;;;1.73;1.63;;;22.00;73.60;;;;;;5079475;28;20642;-82
2022/08/04 00:34:27;;;;;;;2.33;2.13;;;22.00;74.20;;;;;;5077601;28;20624;-82
2022/08/04 00:36:56;;;;;;;2.47;2.27;;;21.90;74.80;;;;;;5067370;28;21291;-82
2022/08/04 00:39:25;;;;;;;2.33;1.80;;;21.80;74.00;;;;;;5066398;28;20625;-83
2022/08/04 00:42:30;;;;;;;2.60;2.10;;;21.70;74.90;;;;;;5067581;28;20629;-82
2022/08/04 00:45:11;;;;;;;1.87;1.77;;;21.60;75.90;;;;;;5067936;28;20625;-82
2022/08/04 00:47:53;;;;;;;2.23;2.13;;;21.70;75.70;;;;;;5068101;28;20636;-83
2022/08/04 00:50:29;;;;;;;2.00;1.80;;;21.70;75.40;;;;;;5068085;28;20674;-82
2022/08/04 00:53:08;;;;;;;3.20;2.23;;;21.70;75.20;;;;;;5071328;28;20628;-82
2022/08/04 00:56:21;;;;;;;3.07;2.40;;;21.70;75.20;;;;;;5081362;28;20633;-82
2022/08/04 00:59:02;;;;;;;2.23;2.10;;;21.80;74.50;;;;;;5067843;28;20609;-82
2022/08/04 01:01:47;;;;;;;3.27;1.83;;;21.80;73.60;;;;;;5084432;28;20826;-82
2022/08/04 01:04:21;;;;;;;1.90;1.80;;;21.80;75.50;;;;;;5081161;28;20680;-82
2022/08/04 01:07:07;;;;;;;1.83;1.73;;;21.70;76.30;;;;;;5066669;28;20610;-82
2022/08/04 01:09:49;;;;;;;3.00;2.43;;;21.80;76.00;;;;;;5067632;28;20715;-82
2022/08/04 01:12:38;;;;;;;1.93;1.83;;;21.80;73.40;;;;;;5066806;28;21066;-82
2022/08/04 01:15:07;;;;;;;2.33;2.00;;;21.80;73.90;;;;;;5067305;28;20652;-82
2022/08/04 01:17:53;;;;;;;2.53;2.33;;;21.90;73.80;;;;;;5083754;28;20734;-82
2022/08/04 01:20:24;;;;;;;2.50;2.10;;;21.90;72.90;;;;;;5081630;28;20727;-82
2022/08/04 01:23:32;;;;;;;3.70;1.60;;;22.00;72.20;;;;;;5081851;28;20626;-82
2022/08/04 01:26:23;;;;;;;2.20;2.10;;;22.00;72.70;;;;;;5075159;28;20759;-82
2022/08/04 01:29:11;;;;;;;2.10;1.90;;;21.90;72.80;;;;;;5087549;28;20612;-82
2022/08/04 01:31:53;;;;;;;2.30;2.10;;;21.90;73.00;;;;;;5071432;28;20631;-82
2022/08/04 01:34:23;;;;;;;2.40;2.20;;;21.90;72.00;;;;;;5079196;28;20624;-82
2022/08/04 01:36:59;;;;;;;2.20;2.00;;;21.90;71.50;;;;;;5080915;28;20780;-82
2022/08/04 01:39:41;;;;;;;1.80;1.70;;;21.90;71.60;;;;;;5067593;28;20675;-82
2022/08/04 01:42:11;;;;;;;1.90;1.80;;;21.90;71.80;;;;;;5066838;28;20659;-82
2022/08/04 01:44:41;;;;;;;2.37;2.27;;;21.90;71.90;;;;;;5076331;28;20629;-82
2022/08/04 01:47:10;;;;;;;2.17;2.00;;;21.80;71.90;;;;;;5072082;28;20675;-82
2022/08/04 01:49:39;;;;;;;2.00;1.90;;;21.80;72.00;;;;;;5086476;28;20617;-82
2022/08/04 01:52:10;;;;;;;1.90;1.77;;;21.80;72.80;;;;;;5080412;28;20683;-82
2022/08/04 01:54:40;;;;;;;2.10;1.90;;;21.70;73.60;;;;;;5066339;28;20617;-82
2022/08/04 01:57:08;;;;;;;1.80;1.70;;;21.70;73.80;;;;;;5087262;28;20684;-82
2022/08/04 01:59:37;;;;;;;2.87;2.27;;;21.70;72.60;;;;;;5085597;28;20608;-82
2022/08/04 02:02:06;;;;;;;2.13;2.03;;;21.70;72.20;;;;;;5081836;28;20720;-82
2022/08/04 02:04:35;;;;;;;2.47;1.80;;;21.70;72.40;;;;;;5067928;28;21218;-82
2022/08/04 02:07:13;;;;;;;2.23;2.10;;;21.70;72.80;;;;;;5066511;28;20619;-82
2022/08/04 02:09:49;;;;;;;3.20;2.70;;;21.60;74.40;;;;;;5078918;28;21190;-82
2022/08/04 02:12:24;;;;;;;2.20;2.00;;;21.60;74.30;;;;;;5066484;28;21197;-82
2022/08/04 02:14:57;;;;;;;1.83;1.73;;;21.50;74.30;;;;;;5067279;28;20616;-82
2022/08/04 02:17:30;;;;;;;2.87;2.60;;;21.50;73.80;;;;;;5082596;28;21245;-82
2022/08/04 02:20:08;;;;;;;2.03;1.93;;;21.50;74.50;;;;;;5084091;28;21225;-82
2022/08/04 02:22:47;;;;;;;1.80;1.70;;;21.40;74.50;;;;;;5066369;28;20961;-82
2022/08/04 02:25:20;;;;;;;2.27;2.07;;;21.40;73.90;;;;;;5084136;28;20623;-82
2022/08/04 02:27:59;;;;;;;4.80;1.93;;;21.40;74.60;;;;;;5068229;28;20636;-82
2022/08/04 02:30:30;;;;;;;2.00;1.90;;;21.40;74.80;;;;;;5074258;28;20631;-82
2022/08/04 02:33:03;;;;;;;2.17;2.00;;;21.40;74.70;;;;;;5087549;28;20689;-82
2022/08/04 02:35:36;;;;;;;2.30;2.10;;;21.40;74.70;;;;;;5078783;28;21202;-82
2022/08/04 02:38:11;;;;;;;2.20;2.00;;;21.30;74.50;;;;;;5090658;28;20667;-82
2022/08/04 02:40:41;;;;;;;2.40;2.20;;;21.30;75.50;;;;;;5084914;28;20644;-82
2022/08/04 02:43:09;;;;;;;2.10;1.90;;;21.10;75.40;;;;;;5082825;28;20660;-82
2022/08/04 02:45:37;;;;;;;2.10;1.90;;;21.10;76.60;;;;;;5072477;28;21176;-82
2022/08/04 02:48:08;;;;;;;2.83;2.30;;;20.90;77.60;;;;;;5083579;28;20621;-83
2022/08/04 02:50:37;;;;;;;2.60;2.40;;;20.90;76.80;;;;;;5080654;28;20838;-82
2022/08/04 02:53:06;;;;;;;2.30;2.10;;;21.00;78.60;;;;;;5087829;28;20656;-82
2022/08/04 02:55:35;;;;;;;2.40;2.20;;;20.80;80.90;;;;;;5082030;28;20665;-82
2022/08/04 02:58:04;;;;;;;2.43;2.30;;;20.80;80.30;;;;;;5070437;28;20669;-82
2022/08/04 03:00:32;;;;;;;1.90;1.70;;;20.80;81.40;;;;;;5077769;28;20652;-82
2022/08/04 03:03:13;;;;;;;2.10;1.90;;;20.70;80.90;;;;;;5089868;28;20663;-82
2022/08/04 03:06:04;;;;;;;2.50;2.03;;;20.70;80.60;;;;;;5088049;28;20715;-82
2022/08/04 03:09:04;;;;;;;2.10;2.00;;;20.60;81.40;;;;;;5071134;28;20621;-82
2022/08/04 03:11:56;;;;;;;2.87;2.10;;;20.50;82.20;;;;;;5023728;28;20738;-82
2022/08/04 03:14:47;;;;;;;2.20;2.10;;;20.50;82.50;;;;;;5069636;28;21191;-82
2022/08/04 03:17:36;;;;;;;3.30;1.70;;;20.50;83.10;;;;;;5070062;28;20664;-82
2022/08/04 03:20:45;;;;;;;2.60;2.20;;;20.40;84.10;;;;;;5070644;28;21205;-82
2022/08/04 03:23:41;;;;;;;1.70;1.60;;;20.40;83.60;;;;;;5067903;28;20681;-82
2022/08/04 03:26:54;;;;;;;1.83;1.60;;;20.30;85.30;;;;;;5090001;28;20974;-82
2022/08/04 03:29:56;;;;;;;2.13;2.03;;;20.20;86.50;;;;;;5044898;28;21012;-82
2022/08/04 03:32:49;;;;;;;2.37;2.20;;;20.10;86.20;;;;;;5084054;28;21268;-82
2022/08/04 03:35:38;;;;;;;1.77;1.67;;;20.30;86.10;;;;;;5071817;28;20625;-82
2022/08/04 03:38:29;;;;;;;2.47;2.20;;;20.30;84.30;;;;;;5088275;28;20652;-82
2022/08/04 03:41:26;;;;;;;2.07;1.97;;;20.40;83.00;;;;;;5081505;28;20629;-83
2022/08/04 03:44:20;;;;;;;2.20;2.00;;;20.30;85.20;;;;;;5069400;28;20625;-82
2022/08/04 03:47:28;;;;;;;3.53;2.23;;;20.20;85.80;;;;;;5083034;28;20633;-82
2022/08/04 03:50:32;;;;;;;2.10;1.97;;;20.20;85.80;;;;;;5074280;28;21350;-83
2022/08/04 03:53:22;;;;;;;2.67;2.50;;;20.20;84.90;;;;;;5081480;28;21049;-82
2022/08/04 03:56:17;;;;;;;2.27;2.03;;;20.20;84.30;;;;;;5080507;28;20648;-82
2022/08/04 03:58:59;;;;;;;2.80;2.60;;;20.30;84.20;;;;;;5062381;28;20663;-82
2022/08/04 04:02:00;;;;;;;2.30;2.10;;;20.30;83.60;;;;;;5069354;28;20628;-82
2022/08/04 04:04:50;;;;;;;5.73;2.90;;;20.30;83.90;;;;;;5084331;28;20623;-82
2022/08/04 04:07:57;;;;;;;1.80;1.70;;;20.30;83.70;;;;;;5076403;28;20661;-82
2022/08/04 04:10:44;;;;;;;2.30;1.97;;;20.30;82.50;;;;;;5070483;28;20723;-82
2022/08/04 04:13:50;;;;;;;2.20;2.10;;;20.30;84.50;;;;;;5068875;28;20657;-82
2022/08/04 04:16:35;;;;;;;2.17;1.70;;;20.30;84.80;;;;;;5005681;28;20649;-82
2022/08/04 04:19:23;;;;;;;2.20;2.00;;;20.20;83.90;;;;;;5007461;28;20731;-82
2022/08/04 04:22:06;;;;;;;2.70;2.50;;;20.20;84.50;;;;;;5072204;28;21200;-82
2022/08/04 04:25:20;;;;;;;1.50;1.40;;;20.20;82.70;;;;;;5067765;28;20657;-82
2022/08/04 04:28:07;;;;;;;1.83;1.73;;;20.30;82.80;;;;;;5016511;28;20731;-82
2022/08/04 04:30:45;;;;;;;1.67;1.47;;;20.30;84.30;;;;;;5042704;28;20657;-82
2022/08/04 04:33:34;;;;;;;1.93;1.83;;;20.30;82.90;;;;;;5025721;28;20729;-82
2022/08/04 04:36:10;;;;;;;1.87;1.77;;;20.30;83.80;;;;;;5063573;28;20621;-82
2022/08/04 04:39:03;;;;;;;1.63;1.53;;;20.40;81.10;;;;;;5074867;28;20760;-82
2022/08/04 04:42:02;;;;;;;3.57;1.97;;;20.60;81.10;;;;;;5077136;28;20621;-81
2022/08/04 04:44:52;;;;;;;2.13;1.83;;;20.50;81.30;;;;;;5053665;28;20736;-82
2022/08/04 04:47:30;;;;;;;1.73;1.63;;;20.50;83.50;;;;;;5079433;28;20637;-82
2022/08/04 04:50:08;;;;;;;2.30;1.73;;;20.60;83.80;;;;;;5088520;28;20731;-82
2022/08/04 04:52:40;;;;;;;1.73;1.63;;;20.60;83.30;;;;;;5079921;28;20629;-83
2022/08/04 04:55:17;;;;;;;2.67;2.23;;;20.70;82.90;;;;;;5083122;28;20640;-82
2022/08/04 04:57:46;;;;;;;2.70;2.17;;;20.70;82.90;;;;;;5086794;28;20666;-83
2022/08/04 05:00:15;;;;;;;2.37;2.00;;;20.70;83.40;;;;;;5087146;28;20612;-82
2022/08/04 05:03:05;;;;;;;1.93;1.80;;;20.80;84.20;;;;;;5074258;28;20636;-82
2022/08/04 05:05:47;;;;;;;2.03;1.83;;;20.80;84.60;;;;;;5077548;28;21221;-81
2022/08/04 05:08:34;;;;;;;2.00;1.90;;;20.90;85.30;;;;;;5066729;28;20631;-81
2022/08/04 05:11:24;;;;;;;2.10;1.97;;;21.00;84.20;;;;;;5076818;28;20728;-82
2022/08/04 05:13:54;;;;;;;2.13;1.83;;;21.00;83.30;;;;;;5065388;28;20729;-81
2022/08/04 05:16:25;;;;;;;2.70;1.90;;;21.10;84.20;;;;;;5070952;28;21255;-82
2022/08/04 05:19:03;;;;;;;3.77;1.50;;;21.20;83.50;;;;;;5075880;28;20661;-82
2022/08/04 05:21:40;;;;;;;2.70;2.03;;;21.20;82.90;;;;;;5075642;28;20617;-82
2022/08/04 05:24:12;;;;;;;1.90;1.80;;;21.40;81.90;;;;;;5080211;28;21087;-81
2022/08/04 05:26:44;;;;;;;1.90;1.73;;;21.50;80.70;;;;;;5080917;28;20731;-81
2022/08/04 05:29:18;;;;;;;1.67;1.50;;;21.60;79.40;;;;;;5067251;28;20633;-81
2022/08/04 05:31:49;;;;;;;2.50;1.93;;;21.60;80.50;;;;;;5067902;28;20690;-81
2022/08/04 05:34:21;;;;;;;3.10;1.83;;;21.70;79.00;;;;;;5074516;28;20678;-81
2022/08/04 05:36:53;;;;;;;2.13;1.80;;;21.90;79.20;;;;;;5073645;28;20678;-82
2022/08/04 05:39:22;;;;;;;1.70;1.60;;;21.80;79.50;;;;;;5081320;28;20689;-81
2022/08/04 05:41:50;;;;;;;1.93;1.80;;;21.90;79.20;;;;;;5084250;28;20744;-81
2022/08/04 05:44:18;;;;;;;1.83;1.73;;;22.00;79.10;;;;;;5085411;28;20631;-81
2022/08/04 05:46:48;;;;;;;2.10;1.90;;;22.10;79.90;;;;;;5075803;28;21191;-82
2022/08/04 05:49:16;;;;;;;2.90;2.00;;;22.10;79.00;;;;;;5067003;28;21234;-82
2022/08/04 05:51:46;;;;;;;1.90;1.80;;;22.20;78.70;;;;;;5067850;28;20640;-81
2022/08/04 05:54:15;;;;;;;3.03;1.80;;;22.30;78.90;;;;;;5074222;28;20662;-82
2022/08/04 05:56:43;;;;;;;2.10;1.90;;;22.40;76.30;;;;;;5069612;28;20691;-82
2022/08/04 05:59:11;;;;;;;2.87;1.97;;;22.50;77.00;;;;;;5087456;28;20792;-82
2022/08/04 06:01:39;;;;;;;2.07;1.90;;;22.60;76.40;;;;;;5081626;28;20624;-81
2022/08/04 06:04:07;;;;;;;1.53;1.40;;;22.70;76.00;;;;;;5071115;28;20679;-81
2022/08/04 06:06:35;;;;;;;1.70;1.60;;;22.90;74.70;;;;;;5067632;28;21272;-81
2022/08/04 06:09:02;;;;;;;2.17;1.93;;;23.00;73.40;;;;;;5078252;28;21184;-81
2022/08/04 06:11:31;;;;;;;1.60;1.50;;;23.10;72.70;;;;;;5087179;28;20715;-81
2022/08/04 06:14:03;;;;;;;2.40;2.20;;;23.20;72.60;;;;;;5082090;28;20675;-81
2022/08/04 06:16:35;;;;;;;1.53;1.43;;;23.30;71.90;;;;;;5071233;28;21254;-81
2022/08/04 06:19:06;;;;;;;1.80;1.70;;;23.30;72.10;;;;;;5087120;28;20759;-82
2022/08/04 06:21:34;;;;;;;3.23;2.17;;;23.50;69.40;;;;;;5089798;28;20613;-83
2022/08/04 06:24:04;;;;;;;2.60;2.40;;;23.60;70.20;;;;;;5076582;28;20723;-81
2022/08/04 06:26:34;;;;;;;2.50;2.30;;;23.70;69.90;;;;;;5086328;28;20630;-82
2022/08/04 06:29:03;;;;;;;1.87;1.77;;;23.90;69.10;;;;;;5071921;28;20683;-81
2022/08/04 06:31:44;;;;;;;1.77;1.67;;;23.80;69.60;;;;;;5071733;28;20623;-82
2022/08/04 06:34:14;;;;;;;2.30;2.10;;;24.00;69.50;;;;;;5075628;28;21070;-82
2022/08/04 06:36:42;;;;;;;2.60;2.00;;;24.00;69.90;;;;;;5077418;28;20731;-82
2022/08/04 06:39:11;;;;;;;2.40;2.20;;;24.10;70.70;;;;;;5089329;28;20700;-82
2022/08/04 06:41:39;;;;;;;2.50;2.27;;;24.20;71.10;;;;;;5074022;28;20661;-82
2022/08/04 06:44:10;;;;;;;1.90;1.80;;;24.30;69.90;;;;;;5078482;28;20604;-81
2022/08/04 06:46:40;;;;;;;1.73;1.63;;;24.40;69.50;;;;;;5069700;28;21046;-81
2022/08/04 06:49:07;;;;;;;2.00;1.80;;;24.50;68.50;;;;;;5083656;28;20743;-81
2022/08/04 06:51:36;;;;;;;1.70;1.60;;;24.60;69.70;;;;;;5085966;28;20718;-82
2022/08/04 06:54:03;;;;;;;2.10;1.97;;;24.70;68.20;;;;;;5089729;28;20717;-82
2022/08/04 06:56:33;;;;;;;2.13;2.00;;;24.80;67.20;;;;;;5087044;28;20645;-82
2022/08/04 06:59:03;;;;;;;6.20;1.77;;;24.90;69.00;;;;;;5087055;28;20699;-82
2022/08/04 07:01:31;;;;;;;1.40;1.30;;;25.00;67.30;;;;;;5089588;28;20731;-83
2022/08/04 07:03:59;;;;;;;2.00;1.90;;;25.00;66.90;;;;;;5069393;28;21019;-82
2022/08/04 07:06:26;;;;;;;1.73;1.63;;;25.30;64.60;;;;;;5070195;28;20653;-83
2022/08/04 07:08:55;;;;;;;1.70;1.60;;;25.40;64.40;;;;;;5069565;28;20724;-82
2022/08/04 07:11:22;;;;;;;1.83;1.50;;;25.50;64.50;;;;;;5068683;28;20647;-83
2022/08/04 07:13:50;;;;;;;1.97;1.70;;;25.60;64.40;;;;;;5069088;28;21268;-82
2022/08/04 07:16:20;;;;;;;1.70;1.60;;;25.70;64.30;;;;;;5069743;28;20721;-82
2022/08/04 07:18:47;;;;;;;2.03;1.93;;;25.80;65.50;;;;;;5069145;28;21301;-83
2022/08/04 07:21:21;;;;;;;2.27;1.90;;;25.80;64.90;;;;;;5069414;28;20718;-83
2022/08/04 07:23:48;;;;;;;2.53;1.73;;;26.00;64.10;;;;;;5068053;28;20617;-82
2022/08/04 07:26:17;;;;;;;2.00;1.90;;;26.10;63.80;;;;;;5069596;28;20640;-82
2022/08/04 07:28:45;;;;;;;1.63;1.53;;;26.20;62.40;;;;;;5069092;28;20728;-82
2022/08/04 07:31:16;;;;;;;2.33;2.03;;;26.30;62.80;;;;;;5073411;28;20646;-82
2022/08/04 07:33:45;;;;;;;1.90;1.63;;;26.50;62.40;;;;;;5084888;28;20618;-82
2022/08/04 07:36:13;;;;;;;2.30;1.90;;;26.50;60.00;;;;;;5087005;28;20628;-82
2022/08/04 07:38:41;;;;;;;2.77;1.80;;;26.50;59.60;;;;;;5087023;28;20668;-83
2022/08/04 07:41:08;;;;;;;2.93;1.83;;;26.60;59.70;;;;;;5084335;28;20724;-83
2022/08/04 07:43:36;;;;;;;1.53;1.43;;;26.80;58.40;;;;;;5067797;28;20645;-83
2022/08/04 07:46:04;;;;;;;1.70;1.60;;;27.00;58.70;;;;;;5068427;28;20636;-82
2022/08/04 07:48:31;;;;;;;1.50;1.40;;;27.10;58.20;;;;;;5069135;28;21155;-82
2022/08/04 07:50:59;;;;;;;1.97;1.87;;;27.20;58.30;;;;;;5068070;28;20719;-83
2022/08/04 07:53:27;;;;;;;1.70;1.60;;;27.40;56.70;;;;;;5067322;28;20625;-83
2022/08/04 07:55:55;;;;;;;1.93;1.80;;;27.50;56.90;;;;;;5067997;28;20643;-82
2022/08/04 07:58:22;;;;;;;1.40;1.20;;;27.60;56.80;;;;;;5068875;28;21327;-83
2022/08/04 08:00:49;;;;;;;1.47;1.37;;;27.70;56.60;;;;;;5068751;28;20718;-82
2022/08/04 08:03:17;;;;;;;1.83;1.70;;;27.80;56.50;;;;;;5067433;28;20796;-83
2022/08/04 08:05:44;;;;;;;1.87;1.77;;;28.00;56.50;;;;;;5068683;28;20632;-83
2022/08/04 08:08:13;;;;;;;2.00;1.80;;;28.10;56.50;;;;;;5068867;28;21590;-83
2022/08/04 08:10:46;;;;;;;1.57;1.47;;;28.10;56.40;;;;;;5068595;28;20621;-83
2022/08/04 08:13:14;;;;;;;2.30;2.00;;;28.30;56.00;;;;;;5067796;28;20645;-83
2022/08/04 08:15:41;;;;;;;1.90;1.70;;;28.40;55.10;;;;;;5067622;28;21167;-83
2022/08/04 08:18:08;;;;;;;1.73;1.63;;;28.40;54.70;;;;;;5068262;28;20649;-83
2022/08/04 08:20:36;;;;;;;1.80;1.70;;;28.50;56.20;;;;;;5068609;28;21082;-83
2022/08/04 08:23:03;;;;;;;2.30;2.10;;;28.50;57.40;;;;;;5067862;28;20618;-83
2022/08/04 08:25:32;;;;;;;2.33;1.77;;;28.60;56.80;;;;;;5068104;28;21303;-83
2022/08/04 08:28:00;;;;;;;1.90;1.80;;;28.80;56.50;;;;;;5068617;28;20645;-82
2022/08/04 08:30:26;;;;;;;1.60;1.50;;;28.80;55.00;;;;;;5066098;28;20629;-83
2022/08/04 08:32:53;;;;;;;1.63;1.53;;;28.90;56.30;;;;;;5067150;28;21210;-82
2022/08/04 08:35:24;;;;;;;1.60;1.50;;;29.00;55.60;;;;;;5068163;28;20618;-82
2022/08/04 08:37:57;;;;;;;1.87;1.67;;;29.10;55.50;;;;;;5083514;28;20708;-84
2022/08/04 08:40:35;;;;;;;2.07;1.87;;;29.30;55.50;;;;;;5076087;28;21238;-85
2022/08/04 08:43:31;;;;;;;1.93;1.83;;;29.40;55.10;;;;;;5074796;28;20652;-83
2022/08/04 08:46:21;;;;;;;1.97;1.87;;;29.50;55.30;;;;;;5062110;28;20621;-84
2022/08/04 08:49:04;;;;;;;1.77;1.67;;;29.70;53.50;;;;;;5070848;28;20679;-83
2022/08/04 08:51:49;;;;;;;2.17;1.97;;;29.90;52.70;;;;;;5068275;28;20718;-83
2022/08/04 08:54:32;;;;;;;2.03;1.80;;;29.90;53.30;;;;;;5082732;28;20728;-84
2022/08/04 08:57:19;;;;;;;1.80;1.60;;;30.10;53.50;;;;;;5083691;28;20624;-83
2022/08/04 09:00:01;;;;;;;1.90;1.80;;;30.10;52.50;;;;;;5067209;28;20708;-84
2022/08/04 09:03:01;;;;;;;2.00;1.90;;;30.30;52.90;;;;;;5078312;28;20694;-83
2022/08/04 09:05:59;;;;;;;2.53;2.33;;;30.40;52.70;;;;;;5071179;28;20809;-84
2022/08/04 09:08:41;;;;;;;2.43;2.23;;;30.50;52.00;;;;;;5061968;28;20656;-82
2022/08/04 09:11:13;;;;;;;2.50;1.93;;;30.60;53.00;;;;;;5069479;28;20678;-83
2022/08/04 09:13:45;;;;;;;2.40;2.20;;;30.60;51.90;;;;;;5080895;28;20641;-85
2022/08/04 09:16:19;;;;;;;1.90;1.80;;;30.70;51.70;;;;;;5087380;28;20715;-84
2022/08/04 09:18:56;;;;;;;2.60;2.10;;;30.70;53.50;;;;;;5068801;28;20669;-82
2022/08/04 09:21:30;;;;;;;1.70;1.60;;;30.70;52.20;;;;;;5067948;28;20621;-83
2022/08/04 09:24:08;;;;;;;2.20;1.80;;;30.70;52.10;;;;;;5070499;28;20635;-82
2022/08/04 09:26:40;;;;;;;2.17;1.90;;;30.80;51.70;;;;;;5086048;28;21268;-84
2022/08/04 09:29:17;;;;;;;1.80;1.70;;;31.10;51.80;;;;;;5087657;28;20666;-82
2022/08/04 09:31:52;;;;;;;1.70;1.60;;;31.00;50.90;;;;;;5085748;28;20624;-83
2022/08/04 09:34:34;;;;;;;2.70;2.10;;;31.00;51.10;;;;;;5084941;28;20621;-82
2022/08/04 09:37:11;;;;;;;1.70;1.60;;;31.20;52.10;;;;;;5084926;28;20731;-83
2022/08/04 09:39:53;;;;;;;1.40;1.40;;;31.50;50.70;;;;;;5067354;28;21292;-85
2022/08/04 09:42:28;;;;;;;2.20;1.90;;;31.50;51.00;;;;;;5066239;28;20744;-84
2022/08/04 09:45:03;;;;;;;1.90;1.80;;;31.70;51.00;;;;;;5067493;28;20644;-82
2022/08/04 09:47:39;;;;;;;2.37;2.23;;;31.80;49.90;;;;;;5066562;28;20635;-85
2022/08/04 09:50:18;;;;;;;1.87;1.70;;;32.00;49.70;;;;;;5066364;28;20653;-84
2022/08/04 09:52:56;;;;;;;2.20;2.10;;;32.00;48.90;;;;;;5066454;28;20637;-85
2022/08/04 09:55:34;;;;;;;2.13;2.00;;;32.20;48.20;;;;;;5065887;28;20965;-84
2022/08/04 09:58:09;;;;;;;1.90;1.80;;;32.20;48.10;;;;;;5064516;28;20992;-85
2022/08/04 10:00:49;;;;;;;1.83;1.73;;;32.40;48.50;;;;;;5075014;28;20758;-84
2022/08/04 10:03:19;;;;;;;2.37;2.17;;;32.40;48.50;;;;;;5067429;28;20629;-83
2022/08/04 10:06:05;;;;;;;2.20;2.10;;;32.50;49.10;;;;;;5086465;28;20625;-82
2022/08/04 10:08:51;;;;;;;1.97;1.87;;;32.60;49.30;;;;;;5085429;28;20630;-82
2022/08/04 10:11:37;;;;;;;2.10;2.00;;;32.70;49.40;;;;;;5086330;28;20642;-81
2022/08/04 10:14:10;;;;;;;1.70;1.60;;;32.80;47.90;;;;;;5074129;28;20716;-83
2022/08/04 10:16:47;;;;;;;2.20;2.00;;;33.00;47.50;;;;;;5087045;28;20666;-82
2022/08/04 10:19:24;;;;;;;1.73;1.60;;;33.10;47.70;;;;;;5087735;28;21621;-81
2022/08/04 10:22:04;;;;;;;1.60;1.50;;;33.10;47.20;;;;;;5086289;28;20715;-81
2022/08/04 10:24:39;;;;;;;1.77;1.67;;;33.30;46.90;;;;;;5066609;28;21328;-80
2022/08/04 10:27:12;;;;;;;2.43;2.30;;;33.30;45.00;;;;;;5065570;28;20702;-83
2022/08/04 10:29:44;;;;;;;1.63;1.53;;;33.20;46.50;;;;;;5067070;28;20985;-81
2022/08/04 10:32:18;;;;;;;1.80;1.70;;;33.40;47.00;;;;;;5066192;28;20670;-82
2022/08/04 10:34:56;;;;;;;1.70;1.60;;;33.60;46.70;;;;;;5066124;28;20624;-82
2022/08/04 10:37:28;;;;;;;1.73;1.63;;;33.90;45.80;;;;;;5074975;28;20614;-82
2022/08/04 10:42:52;;;;;;;1.80;1.70;;;34.10;44.90;;;;;;5075337;28;20617;-81
2022/08/04 10:45:24;;;;;;;2.57;2.37;;;34.40;44.50;;;;;;5075577;28;20747;-82
2022/08/04 10:48:01;;;;;;;2.00;1.90;;;34.40;45.20;;;;;;5085896;28;20627;-83
2022/08/04 10:50:29;;;;;;;2.00;1.80;;;34.50;44.30;;;;;;5077820;28;20635;-82
2022/08/04 10:53:03;;;;;;;1.57;1.47;;;34.60;44.60;;;;;;5068744;28;20629;-82
2022/08/04 10:55:37;;;;;;;1.97;1.80;;;34.60;43.80;;;;;;5084362;28;20675;-82
2022/08/04 10:58:06;;;;;;;2.00;1.90;;;34.80;44.60;;;;;;5083416;28;20621;-82
2022/08/04 11:00:39;;;;;;;2.13;2.03;;;34.70;43.70;;;;;;5089166;28;20667;-82
2022/08/04 11:03:14;;;;;;;2.03;1.93;;;35.10;44.20;;;;;;5072009;28;21248;-82
2022/08/04 11:05:46;;;;;;;1.60;1.50;;;35.10;43.10;;;;;;5090963;28;21475;-82
2022/08/04 11:08:17;;;;;;;1.47;1.40;;;35.20;42.50;;;;;;5081951;28;20731;-81
2022/08/04 11:10:48;;;;;;;1.60;1.50;;;35.30;42.70;;;;;;5072802;28;20606;-82
2022/08/04 11:13:17;;;;;;;2.33;2.23;;;35.60;41.60;;;;;;5081855;28;21477;-83
2022/08/04 11:15:54;;;;;;;2.10;2.00;;;35.60;41.70;;;;;;5091476;28;20668;-82
2022/08/04 11:18:32;;;;;;;1.63;1.53;;;35.70;41.50;;;;;;5089874;28;20620;-81
2022/08/04 11:21:06;;;;;;;1.60;1.50;;;35.90;41.60;;;;;;5081307;28;20703;-83
2022/08/04 11:23:36;;;;;;;1.73;1.63;;;36.00;40.80;;;;;;5071858;28;21034;-82
2022/08/04 11:26:09;;;;;;;2.10;1.90;;;36.10;40.20;;;;;;5090020;28;20990;-82
2022/08/04 11:28:46;;;;;;;2.07;1.97;;;36.50;41.20;;;;;;5071530;28;20730;-81
2022/08/04 11:31:21;;;;;;;1.57;1.47;;;36.70;41.80;;;;;;5072365;28;20617;-82
2022/08/04 11:34:04;;;;;;;2.13;2.03;;;36.90;40.40;;;;;;5073138;28;20673;-83
2022/08/04 11:36:39;;;;;;;1.90;1.80;;;37.10;37.90;;;;;;5090093;28;20630;-82
2022/08/04 11:39:12;;;;;;;2.07;1.97;;;37.20;38.40;;;;;;5074999;28;20680;-82
2022/08/04 11:41:48;;;;;;;1.87;1.77;;;37.60;39.70;;;;;;5080110;28;20656;-83
2022/08/04 11:44:22;;;;;;;4.20;1.57;;;38.00;37.10;;;;;;5068335;28;20621;-82
2022/08/04 11:46:53;;;;;;;2.00;1.90;;;38.00;37.90;;;;;;5070037;28;21257;-82
2022/08/04 11:49:33;;;;;;;1.57;1.47;;;38.20;38.40;;;;;;5078471;28;21501;-81
2022/08/04 11:52:02;;;;;;;1.70;1.60;;;38.70;37.90;;;;;;5087665;28;20697;-83
2022/08/04 11:54:30;;;;;;;1.93;1.83;;;39.10;35.60;;;;;;5068525;28;20636;-82
2022/08/04 11:56:57;;;;;;;1.60;1.50;;;39.40;35.50;;;;;;5070716;28;20647;-83
2022/08/04 11:59:25;;;;;;;4.77;1.67;;;39.80;35.50;;;;;;5072809;28;20692;-82
2022/08/04 12:02:41;;;;;;;2.27;1.50;;;40.10;35.30;;;;;;5070064;28;20628;-83
2022/08/04 12:05:10;;;;;;;1.55;1.45;;;40.80;34.80;;;;;;5068066;28;20721;-80
2022/08/04 12:07:49;;;;;;;1.60;1.50;;;40.90;36.40;;;;;;5086055;28;20198;-81
2022/08/04 12:10:27;;;;;;;1.70;1.60;;;42.50;33.20;;;;;;5080147;28;20210;-81
2022/08/04 12:13:05;;;;;;;1.60;1.50;;;42.30;33.20;;;;;;5068951;28;20245;-81
2022/08/04 12:15:37;;;;;;;2.08;1.98;;;41.60;32.70;;;;;;5067661;28;20297;-81
2022/08/04 12:18:10;;;;;;;1.85;1.75;;;41.30;33.10;;;;;;5074538;28;20727;-81
2022/08/04 12:20:45;;;;;;;2.10;2.00;;;41.20;34.90;;;;;;5069736;28;20261;-83
2022/08/04 12:23:20;;;;;;;2.03;1.92;;;41.80;34.40;;;;;;5083099;28;20198;-82
2022/08/04 12:25:49;;;;;;;1.77;1.67;;;42.90;33.30;;;;;;5082684;28;20681;-80
2022/08/04 12:28:22;;;;;;;1.80;1.70;;;43.20;34.00;;;;;;5068573;28;20270;-80
2022/08/04 12:30:58;;;;;;;2.15;2.05;;;44.00;33.50;;;;;;5088047;28;20222;-81
2022/08/04 12:33:34;;;;;;;2.00;1.90;;;42.60;33.60;;;;;;5083647;28;20211;-81
2022/08/04 12:36:12;;;;;;;1.63;1.52;;;40.70;34.40;;;;;;5072578;28;20200;-80
2022/08/04 12:38:47;;;;;;;1.67;1.58;;;39.60;34.60;;;;;;5077832;28;20218;-80
2022/08/04 12:41:16;;;;;;;1.83;1.73;;;38.80;35.80;;;;;;5076365;28;20730;-79
2022/08/04 12:43:45;;;;;;;1.80;1.70;;;39.60;36.10;;;;;;5086563;28;20285;-80
2022/08/04 12:46:20;;;;;;;1.75;1.65;;;40.80;34.00;;;;;;5086841;28;20199;-80
2022/08/04 12:48:49;;;;;;;1.77;1.67;;;41.20;34.60;;;;;;5086014;28;20299;-80
2022/08/04 12:51:19;;;;;;;2.30;2.10;;;41.00;33.40;;;;;;5074425;28;20222;-81
2022/08/04 12:53:47;;;;;;;1.80;1.70;;;39.60;34.20;;;;;;5079912;28;20198;-80
2022/08/04 12:56:15;;;;;;;1.97;1.83;;;39.30;36.90;;;;;;5071841;28;20438;-80
2022/08/04 12:58:45;;;;;;;1.80;1.70;;;38.90;35.30;;;;;;5074325;28;20241;-81
2022/08/04 13:01:19;;;;;;;2.10;2.00;;;39.10;36.80;;;;;;5073968;28;20253;-81
2022/08/04 13:03:53;;;;;;;2.00;1.90;;;41.10;35.30;;;;;;5077955;28;20313;-82
2022/08/04 13:06:27;;;;;;;1.95;1.85;;;41.90;34.70;;;;;;5076858;28;20195;-82
2022/08/04 13:08:55;;;;;;;1.73;1.63;;;43.30;33.20;;;;;;5076942;28;20233;-82
2022/08/04 13:11:23;;;;;;;2.00;1.90;;;42.40;32.30;;;;;;5078340;28;20206;-81
2022/08/04 13:13:55;;;;;;;2.28;2.00;;;42.70;32.70;;;;;;5074035;28;20222;-82
2022/08/04 13:16:30;;;;;;;1.80;1.70;;;42.30;33.30;;;;;;5077015;28;20694;-82
2022/08/04 13:18:58;;;;;;;1.80;1.70;;;42.70;33.00;;;;;;5067414;28;20298;-83
2022/08/04 13:21:30;;;;;;;2.08;1.98;;;43.30;31.20;;;;;;5067115;28;20239;-83
2022/08/04 13:24:02;;;;;;;1.70;1.60;;;43.90;31.30;;;;;;5066694;28;20287;-82
2022/08/04 13:26:30;;;;;;;2.05;1.95;;;44.60;31.40;;;;;;5066454;28;20288;-83
2022/08/04 13:29:02;;;;;;;1.63;1.52;;;44.30;31.70;;;;;;5066862;28;20734;-82
2022/08/04 13:31:30;;;;;;;1.60;1.50;;;43.10;31.20;;;;;;5066595;28;20327;-81
2022/08/04 13:34:06;;;;;;;1.88;1.77;;;42.00;33.40;;;;;;5066281;28;20201;-81
2022/08/04 13:36:35;;;;;;;4.80;1.70;;;40.10;33.20;;;;;;5074699;28;20193;-82